sensor_id;sensor_type;location;lat;lon;timestamp;P1;durP1;ratioP1;P2;durP2;ratioP2
19161;SDS011;9713;48.140;11.530;2023-02-28T00:03:41;8.70;;;4.10;;
19161;SDS011;9713;48.140;11.530;2023-02-28T00:07:24;6.67;;;3.37;;
19161;SDS011;9713;48.140;11.530;2023-02-28T00:11:08;7.53;;;3.23;;
19161;SDS011;9713;48.140;11.530;2023-02-28T00:14:52;9.63;;;3.70;;
19161;SDS011;9713;48.140;11.530;2023-02-28T00:18:35;8.70;;;3.70;;
19161;SDS011;9713;48.140;11.530;2023-02-28T00:22:18;7.17;;;3.40;;
19161;SDS011;9713;48.140;11.530;2023-02-28T00:26:04;7.67;;;3.60;;
19161;SDS011;9713;48.140;11.530;2023-02-28T00:29:48;6.67;;;3.60;;
19161;SDS011;9713;48.140;11.530;2023-02-28T00:33:30;8.53;;;3.97;;
19161;SDS011;9713;48.140;11.530;2023-02-28T00:37:13;7.53;;;3.90;;
19161;SDS011;9713;48.140;11.530;2023-02-28T00:40:56;6.63;;;3.30;;
19161;SDS011;9713;48.140;11.530;2023-02-28T00:44:39;8.00;;;4.33;;
19161;SDS011;9713;48.140;11.530;2023-02-28T00:48:23;8.90;;;4.27;;
19161;SDS011;9713;48.140;11.530;2023-02-28T00:52:06;10.97;;;4.23;;
19161;SDS011;9713;48.140;11.530;2023-02-28T00:55:49;8.63;;;3.80;;
19161;SDS011;9713;48.140;11.530;2023-02-28T00:59:32;8.77;;;4.23;;
19161;SDS011;9713;48.140;11.530;2023-02-28T01:03:15;7.47;;;3.77;;
19161;SDS011;9713;48.140;11.530;2023-02-28T01:07:00;6.73;;;3.67;;
19161;SDS011;9713;48.140;11.530;2023-02-28T01:10:42;6.47;;;3.87;;
19161;SDS011;9713;48.140;11.530;2023-02-28T01:14:25;6.37;;;3.63;;
19161;SDS011;9713;48.140;11.530;2023-02-28T01:18:08;8.23;;;4.27;;
19161;SDS011;9713;48.140;11.530;2023-02-28T01:21:50;7.73;;;4.37;;
19161;SDS011;9713;48.140;11.530;2023-02-28T01:25:35;10.90;;;4.37;;
19161;SDS011;9713;48.140;11.530;2023-02-28T01:29:18;7.83;;;4.60;;
19161;SDS011;9713;48.140;11.530;2023-02-28T01:33:01;8.33;;;4.27;;
19161;SDS011;9713;48.140;11.530;2023-02-28T01:36:43;7.80;;;4.10;;
19161;SDS011;9713;48.140;11.530;2023-02-28T01:40:26;8.90;;;4.43;;
19161;SDS011;9713;48.140;11.530;2023-02-28T01:48:29;9.00;;;4.30;;
19161;SDS011;9713;48.140;11.530;2023-02-28T01:52:16;7.83;;;4.10;;
19161;SDS011;9713;48.140;11.530;2023-02-28T01:56:00;7.17;;;3.87;;
19161;SDS011;9713;48.140;11.530;2023-02-28T01:59:43;6.87;;;3.77;;
19161;SDS011;9713;48.140;11.530;2023-02-28T02:03:31;7.97;;;4.20;;
19161;SDS011;9713;48.140;11.530;2023-02-28T02:07:14;7.70;;;4.47;;
19161;SDS011;9713;48.140;11.530;2023-02-28T02:10:57;8.60;;;4.20;;
19161;SDS011;9713;48.140;11.530;2023-02-28T02:14:43;6.83;;;4.07;;
19161;SDS011;9713;48.140;11.530;2023-02-28T02:18:39;7.90;;;4.37;;
19161;SDS011;9713;48.140;11.530;2023-02-28T02:26:52;7.27;;;4.27;;
19161;SDS011;9713;48.140;11.530;2023-02-28T02:30:44;6.20;;;3.80;;
19161;SDS011;9713;48.140;11.530;2023-02-28T02:34:44;7.80;;;4.13;;
19161;SDS011;9713;48.140;11.530;2023-02-28T02:38:33;8.20;;;4.10;;
19161;SDS011;9713;48.140;11.530;2023-02-28T02:42:20;6.87;;;4.33;;
19161;SDS011;9713;48.140;11.530;2023-02-28T02:46:06;8.40;;;4.37;;
19161;SDS011;9713;48.140;11.530;2023-02-28T02:49:53;6.80;;;4.30;;
19161;SDS011;9713;48.140;11.530;2023-02-28T02:53:40;6.87;;;4.20;;
19161;SDS011;9713;48.140;11.530;2023-02-28T02:57:25;6.90;;;4.57;;
19161;SDS011;9713;48.140;11.530;2023-02-28T03:01:16;8.03;;;4.67;;
19161;SDS011;9713;48.140;11.530;2023-02-28T03:05:12;8.17;;;4.40;;
19161;SDS011;9713;48.140;11.530;2023-02-28T03:08:57;8.07;;;4.70;;
19161;SDS011;9713;48.140;11.530;2023-02-28T03:12:41;6.70;;;4.23;;
19161;SDS011;9713;48.140;11.530;2023-02-28T03:16:34;8.70;;;5.03;;
19161;SDS011;9713;48.140;11.530;2023-02-28T03:20:23;8.33;;;4.77;;
19161;SDS011;9713;48.140;11.530;2023-02-28T03:24:10;8.87;;;4.63;;
19161;SDS011;9713;48.140;11.530;2023-02-28T03:28:08;9.33;;;5.03;;
19161;SDS011;9713;48.140;11.530;2023-02-28T03:31:53;8.33;;;4.83;;
19161;SDS011;9713;48.140;11.530;2023-02-28T03:35:41;9.47;;;5.10;;
19161;SDS011;9713;48.140;11.530;2023-02-28T03:39:28;8.27;;;4.43;;
19161;SDS011;9713;48.140;11.530;2023-02-28T03:43:14;12.27;;;5.43;;
19161;SDS011;9713;48.140;11.530;2023-02-28T03:47:02;10.00;;;5.23;;
19161;SDS011;9713;48.140;11.530;2023-02-28T03:50:49;11.23;;;5.30;;
19161;SDS011;9713;48.140;11.530;2023-02-28T03:54:35;10.30;;;5.37;;
19161;SDS011;9713;48.140;11.530;2023-02-28T03:58:28;8.50;;;4.87;;
19161;SDS011;9713;48.140;11.530;2023-02-28T04:02:12;10.63;;;5.23;;
19161;SDS011;9713;48.140;11.530;2023-02-28T04:05:56;9.97;;;5.70;;
19161;SDS011;9713;48.140;11.530;2023-02-28T04:09:40;9.20;;;5.43;;
19161;SDS011;9713;48.140;11.530;2023-02-28T04:13:23;10.00;;;5.87;;
19161;SDS011;9713;48.140;11.530;2023-02-28T04:17:05;11.23;;;5.80;;
19161;SDS011;9713;48.140;11.530;2023-02-28T04:20:48;11.83;;;6.60;;
19161;SDS011;9713;48.140;11.530;2023-02-28T04:24:32;12.00;;;6.60;;
19161;SDS011;9713;48.140;11.530;2023-02-28T04:28:15;11.67;;;5.87;;
19161;SDS011;9713;48.140;11.530;2023-02-28T04:31:58;11.23;;;6.33;;
19161;SDS011;9713;48.140;11.530;2023-02-28T04:35:42;13.97;;;6.63;;
19161;SDS011;9713;48.140;11.530;2023-02-28T04:39:24;12.63;;;6.97;;
19161;SDS011;9713;48.140;11.530;2023-02-28T04:43:10;13.80;;;6.93;;
19161;SDS011;9713;48.140;11.530;2023-02-28T04:46:52;15.23;;;7.03;;
19161;SDS011;9713;48.140;11.530;2023-02-28T04:50:35;14.37;;;6.77;;
19161;SDS011;9713;48.140;11.530;2023-02-28T04:54:17;12.97;;;7.00;;
19161;SDS011;9713;48.140;11.530;2023-02-28T04:58:00;16.73;;;7.27;;
19161;SDS011;9713;48.140;11.530;2023-02-28T05:01:46;14.80;;;7.40;;
19161;SDS011;9713;48.140;11.530;2023-02-28T05:05:30;14.83;;;7.60;;
19161;SDS011;9713;48.140;11.530;2023-02-28T05:09:12;14.90;;;7.83;;
19161;SDS011;9713;48.140;11.530;2023-02-28T05:12:55;17.93;;;8.03;;
19161;SDS011;9713;48.140;11.530;2023-02-28T05:16:38;16.03;;;8.27;;
19161;SDS011;9713;48.140;11.530;2023-02-28T05:20:22;15.40;;;8.43;;
19161;SDS011;9713;48.140;11.530;2023-02-28T05:24:05;18.17;;;8.60;;
19161;SDS011;9713;48.140;11.530;2023-02-28T05:27:49;16.70;;;8.73;;
19161;SDS011;9713;48.140;11.530;2023-02-28T05:31:32;18.37;;;8.67;;
19161;SDS011;9713;48.140;11.530;2023-02-28T05:35:15;17.83;;;9.07;;
19161;SDS011;9713;48.140;11.530;2023-02-28T05:38:59;17.87;;;9.00;;
19161;SDS011;9713;48.140;11.530;2023-02-28T05:42:42;15.47;;;8.40;;
19161;SDS011;9713;48.140;11.530;2023-02-28T05:46:25;17.90;;;9.20;;
19161;SDS011;9713;48.140;11.530;2023-02-28T05:50:10;18.53;;;9.90;;
19161;SDS011;9713;48.140;11.530;2023-02-28T05:53:53;20.07;;;9.87;;
19161;SDS011;9713;48.140;11.530;2023-02-28T05:57:37;19.77;;;10.23;;
19161;SDS011;9713;48.140;11.530;2023-02-28T06:01:21;18.87;;;10.03;;
19161;SDS011;9713;48.140;11.530;2023-02-28T06:05:07;21.80;;;10.93;;
19161;SDS011;9713;48.140;11.530;2023-02-28T06:08:54;24.60;;;11.67;;
19161;SDS011;9713;48.140;11.530;2023-02-28T06:12:38;24.70;;;10.57;;
19161;SDS011;9713;48.140;11.530;2023-02-28T06:16:22;20.40;;;10.10;;
19161;SDS011;9713;48.140;11.530;2023-02-28T06:20:06;21.77;;;11.13;;
19161;SDS011;9713;48.140;11.530;2023-02-28T06:23:50;23.43;;;11.57;;
19161;SDS011;9713;48.140;11.530;2023-02-28T06:27:33;23.23;;;11.20;;
19161;SDS011;9713;48.140;11.530;2023-02-28T06:31:18;21.83;;;11.40;;
19161;SDS011;9713;48.140;11.530;2023-02-28T06:35:01;23.37;;;11.87;;
19161;SDS011;9713;48.140;11.530;2023-02-28T06:38:45;21.97;;;11.27;;
19161;SDS011;9713;48.140;11.530;2023-02-28T06:42:32;23.63;;;12.50;;
19161;SDS011;9713;48.140;11.530;2023-02-28T06:46:15;22.63;;;11.73;;
19161;SDS011;9713;48.140;11.530;2023-02-28T06:49:59;20.80;;;11.37;;
19161;SDS011;9713;48.140;11.530;2023-02-28T06:53:42;24.43;;;12.43;;
19161;SDS011;9713;48.140;11.530;2023-02-28T06:57:25;23.73;;;12.30;;
19161;SDS011;9713;48.140;11.530;2023-02-28T07:01:13;22.93;;;11.63;;
19161;SDS011;9713;48.140;11.530;2023-02-28T07:04:55;24.07;;;12.03;;
19161;SDS011;9713;48.140;11.530;2023-02-28T07:08:39;22.83;;;11.80;;
19161;SDS011;9713;48.140;11.530;2023-02-28T07:12:22;22.73;;;12.50;;
19161;SDS011;9713;48.140;11.530;2023-02-28T07:16:06;23.03;;;12.03;;
19161;SDS011;9713;48.140;11.530;2023-02-28T07:19:51;22.97;;;11.47;;
19161;SDS011;9713;48.140;11.530;2023-02-28T07:23:33;25.17;;;12.23;;
19161;SDS011;9713;48.140;11.530;2023-02-28T07:27:20;25.03;;;12.43;;
19161;SDS011;9713;48.140;11.530;2023-02-28T07:31:06;29.40;;;12.83;;
19161;SDS011;9713;48.140;11.530;2023-02-28T07:34:53;23.80;;;11.93;;
19161;SDS011;9713;48.140;11.530;2023-02-28T07:38:36;25.47;;;12.63;;
19161;SDS011;9713;48.140;11.530;2023-02-28T07:42:21;24.90;;;12.87;;
19161;SDS011;9713;48.140;11.530;2023-02-28T07:46:04;31.30;;;12.50;;
19161;SDS011;9713;48.140;11.530;2023-02-28T07:49:47;23.97;;;12.73;;
19161;SDS011;9713;48.140;11.530;2023-02-28T07:53:30;27.07;;;12.97;;
19161;SDS011;9713;48.140;11.530;2023-02-28T07:57:13;25.67;;;12.43;;
19161;SDS011;9713;48.140;11.530;2023-02-28T08:00:57;26.73;;;13.77;;
19161;SDS011;9713;48.140;11.530;2023-02-28T08:04:47;23.90;;;12.13;;
19161;SDS011;9713;48.140;11.530;2023-02-28T08:08:31;25.80;;;13.60;;
19161;SDS011;9713;48.140;11.530;2023-02-28T08:12:14;22.23;;;12.37;;
19161;SDS011;9713;48.140;11.530;2023-02-28T08:16:00;29.13;;;13.67;;
19161;SDS011;9713;48.140;11.530;2023-02-28T08:19:44;26.87;;;13.83;;
19161;SDS011;9713;48.140;11.530;2023-02-28T08:23:27;25.13;;;13.33;;
19161;SDS011;9713;48.140;11.530;2023-02-28T08:27:10;24.00;;;12.53;;
19161;SDS011;9713;48.140;11.530;2023-02-28T08:30:52;27.90;;;13.53;;
19161;SDS011;9713;48.140;11.530;2023-02-28T08:34:37;22.43;;;12.53;;
19161;SDS011;9713;48.140;11.530;2023-02-28T08:38:21;23.90;;;12.90;;
19161;SDS011;9713;48.140;11.530;2023-02-28T08:42:04;22.07;;;12.37;;
19161;SDS011;9713;48.140;11.530;2023-02-28T08:45:50;22.50;;;12.97;;
19161;SDS011;9713;48.140;11.530;2023-02-28T08:49:34;24.70;;;12.70;;
19161;SDS011;9713;48.140;11.530;2023-02-28T08:53:18;24.40;;;13.13;;
19161;SDS011;9713;48.140;11.530;2023-02-28T08:57:00;22.73;;;13.27;;
19161;SDS011;9713;48.140;11.530;2023-02-28T09:00:43;27.40;;;13.40;;
19161;SDS011;9713;48.140;11.530;2023-02-28T09:04:26;25.47;;;12.37;;
19161;SDS011;9713;48.140;11.530;2023-02-28T09:08:11;23.30;;;12.73;;
19161;SDS011;9713;48.140;11.530;2023-02-28T09:11:56;24.80;;;12.93;;
19161;SDS011;9713;48.140;11.530;2023-02-28T09:15:40;24.37;;;13.40;;
19161;SDS011;9713;48.140;11.530;2023-02-28T09:19:23;23.70;;;13.50;;
19161;SDS011;9713;48.140;11.530;2023-02-28T09:23:05;23.00;;;12.50;;
19161;SDS011;9713;48.140;11.530;2023-02-28T09:26:48;23.50;;;13.00;;
19161;SDS011;9713;48.140;11.530;2023-02-28T09:30:46;21.73;;;13.00;;
19161;SDS011;9713;48.140;11.530;2023-02-28T09:34:29;22.97;;;13.03;;
19161;SDS011;9713;48.140;11.530;2023-02-28T09:38:13;26.53;;;13.67;;
19161;SDS011;9713;48.140;11.530;2023-02-28T09:41:55;22.07;;;13.17;;
19161;SDS011;9713;48.140;11.530;2023-02-28T09:45:39;25.83;;;13.20;;
19161;SDS011;9713;48.140;11.530;2023-02-28T09:49:25;23.20;;;13.60;;
19161;SDS011;9713;48.140;11.530;2023-02-28T09:53:13;29.17;;;15.00;;
19161;SDS011;9713;48.140;11.530;2023-02-28T09:56:59;27.97;;;14.10;;
19161;SDS011;9713;48.140;11.530;2023-02-28T10:00:44;25.80;;;13.53;;
19161;SDS011;9713;48.140;11.530;2023-02-28T10:04:37;26.80;;;14.03;;
19161;SDS011;9713;48.140;11.530;2023-02-28T10:08:25;26.23;;;13.67;;
19161;SDS011;9713;48.140;11.530;2023-02-28T10:12:09;25.47;;;14.27;;
19161;SDS011;9713;48.140;11.530;2023-02-28T10:15:55;27.03;;;14.80;;
19161;SDS011;9713;48.140;11.530;2023-02-28T10:19:42;26.90;;;13.63;;
19161;SDS011;9713;48.140;11.530;2023-02-28T10:23:28;25.93;;;14.00;;
19161;SDS011;9713;48.140;11.530;2023-02-28T10:27:15;24.90;;;13.50;;
19161;SDS011;9713;48.140;11.530;2023-02-28T10:30:59;24.00;;;13.27;;
19161;SDS011;9713;48.140;11.530;2023-02-28T10:34:44;24.60;;;13.67;;
19161;SDS011;9713;48.140;11.530;2023-02-28T10:38:27;24.00;;;14.00;;
19161;SDS011;9713;48.140;11.530;2023-02-28T10:42:21;23.73;;;13.47;;
19161;SDS011;9713;48.140;11.530;2023-02-28T10:46:11;27.37;;;14.73;;
19161;SDS011;9713;48.140;11.530;2023-02-28T10:49:58;26.13;;;14.50;;
19161;SDS011;9713;48.140;11.530;2023-02-28T10:53:45;21.10;;;12.03;;
19161;SDS011;9713;48.140;11.530;2023-02-28T10:57:42;29.83;;;13.93;;
19161;SDS011;9713;48.140;11.530;2023-02-28T11:01:27;45.57;;;24.77;;
19161;SDS011;9713;48.140;11.530;2023-02-28T11:05:30;32.77;;;17.90;;
19161;SDS011;9713;48.140;11.530;2023-02-28T11:09:18;24.37;;;13.87;;
19161;SDS011;9713;48.140;11.530;2023-02-28T11:13:12;25.67;;;13.80;;
19161;SDS011;9713;48.140;11.530;2023-02-28T11:17:01;28.07;;;13.70;;
19161;SDS011;9713;48.140;11.530;2023-02-28T11:20:55;25.33;;;13.23;;
19161;SDS011;9713;48.140;11.530;2023-02-28T11:24:42;23.40;;;13.10;;
19161;SDS011;9713;48.140;11.530;2023-02-28T11:28:27;23.03;;;13.70;;
19161;SDS011;9713;48.140;11.530;2023-02-28T11:32:13;22.93;;;13.40;;
19161;SDS011;9713;48.140;11.530;2023-02-28T11:36:01;28.37;;;13.60;;
19161;SDS011;9713;48.140;11.530;2023-02-28T11:39:46;21.70;;;13.20;;
19161;SDS011;9713;48.140;11.530;2023-02-28T11:43:32;26.43;;;14.00;;
19161;SDS011;9713;48.140;11.530;2023-02-28T11:47:20;24.77;;;13.53;;
19161;SDS011;9713;48.140;11.530;2023-02-28T11:51:13;24.20;;;12.83;;
19161;SDS011;9713;48.140;11.530;2023-02-28T11:55:04;21.23;;;13.20;;
19161;SDS011;9713;48.140;11.530;2023-02-28T11:58:54;24.30;;;13.97;;
19161;SDS011;9713;48.140;11.530;2023-02-28T12:02:44;22.53;;;14.03;;
19161;SDS011;9713;48.140;11.530;2023-02-28T12:06:40;25.57;;;14.47;;
19161;SDS011;9713;48.140;11.530;2023-02-28T12:10:28;24.37;;;13.73;;
19161;SDS011;9713;48.140;11.530;2023-02-28T12:14:28;22.57;;;13.53;;
19161;SDS011;9713;48.140;11.530;2023-02-28T12:18:36;24.83;;;12.87;;
19161;SDS011;9713;48.140;11.530;2023-02-28T12:22:31;20.43;;;12.90;;
19161;SDS011;9713;48.140;11.530;2023-02-28T12:26:19;20.33;;;12.10;;
19161;SDS011;9713;48.140;11.530;2023-02-28T12:30:06;21.97;;;13.13;;
19161;SDS011;9713;48.140;11.530;2023-02-28T12:34:00;21.90;;;13.10;;
19161;SDS011;9713;48.140;11.530;2023-02-28T12:37:49;22.50;;;12.70;;
19161;SDS011;9713;48.140;11.530;2023-02-28T12:41:34;20.10;;;11.87;;
19161;SDS011;9713;48.140;11.530;2023-02-28T12:45:22;26.73;;;11.90;;
19161;SDS011;9713;48.140;11.530;2023-02-28T12:49:08;21.57;;;12.43;;
19161;SDS011;9713;48.140;11.530;2023-02-28T12:52:55;19.67;;;12.33;;
19161;SDS011;9713;48.140;11.530;2023-02-28T12:56:43;19.20;;;12.27;;
19161;SDS011;9713;48.140;11.530;2023-02-28T13:00:32;21.53;;;12.47;;
19161;SDS011;9713;48.140;11.530;2023-02-28T13:08:31;20.90;;;11.80;;
19161;SDS011;9713;48.140;11.530;2023-02-28T13:12:24;20.90;;;12.00;;
19161;SDS011;9713;48.140;11.530;2023-02-28T13:16:08;20.20;;;11.33;;
19161;SDS011;9713;48.140;11.530;2023-02-28T13:19:56;30.20;;;11.87;;
19161;SDS011;9713;48.140;11.530;2023-02-28T13:23:57;20.43;;;11.37;;
19161;SDS011;9713;48.140;11.530;2023-02-28T13:27:41;21.97;;;12.30;;
19161;SDS011;9713;48.140;11.530;2023-02-28T13:31:24;19.77;;;11.90;;
19161;SDS011;9713;48.140;11.530;2023-02-28T13:39:47;21.77;;;11.43;;
19161;SDS011;9713;48.140;11.530;2023-02-28T13:47:42;19.80;;;12.03;;
19161;SDS011;9713;48.140;11.530;2023-02-28T13:51:38;21.10;;;12.70;;
19161;SDS011;9713;48.140;11.530;2023-02-28T13:55:25;18.70;;;11.43;;
19161;SDS011;9713;48.140;11.530;2023-02-28T13:59:14;19.97;;;12.37;;
19161;SDS011;9713;48.140;11.530;2023-02-28T14:03:11;19.67;;;11.50;;
19161;SDS011;9713;48.140;11.530;2023-02-28T14:07:01;23.10;;;11.87;;
19161;SDS011;9713;48.140;11.530;2023-02-28T14:10:46;19.60;;;11.77;;
19161;SDS011;9713;48.140;11.530;2023-02-28T14:14:53;20.00;;;12.03;;
19161;SDS011;9713;48.140;11.530;2023-02-28T14:18:37;18.50;;;11.30;;
19161;SDS011;9713;48.140;11.530;2023-02-28T14:22:35;15.83;;;10.00;;
19161;SDS011;9713;48.140;11.530;2023-02-28T14:26:33;18.37;;;11.73;;
19161;SDS011;9713;48.140;11.530;2023-02-28T14:34:42;20.83;;;10.87;;
19161;SDS011;9713;48.140;11.530;2023-02-28T14:38:27;17.37;;;11.03;;
19161;SDS011;9713;48.140;11.530;2023-02-28T14:42:29;18.77;;;11.27;;
19161;SDS011;9713;48.140;11.530;2023-02-28T14:46:14;21.33;;;11.33;;
19161;SDS011;9713;48.140;11.530;2023-02-28T14:49:58;17.90;;;10.73;;
19161;SDS011;9713;48.140;11.530;2023-02-28T14:53:41;17.30;;;10.40;;
19161;SDS011;9713;48.140;11.530;2023-02-28T14:57:24;18.93;;;10.90;;
19161;SDS011;9713;48.140;11.530;2023-02-28T15:01:10;21.00;;;10.97;;
19161;SDS011;9713;48.140;11.530;2023-02-28T15:04:54;22.63;;;10.47;;
19161;SDS011;9713;48.140;11.530;2023-02-28T15:08:40;19.27;;;10.27;;
19161;SDS011;9713;48.140;11.530;2023-02-28T15:12:23;16.70;;;10.43;;
19161;SDS011;9713;48.140;11.530;2023-02-28T15:16:08;18.57;;;11.43;;
19161;SDS011;9713;48.140;11.530;2023-02-28T15:19:54;17.80;;;11.33;;
19161;SDS011;9713;48.140;11.530;2023-02-28T15:23:37;16.57;;;10.80;;
19161;SDS011;9713;48.140;11.530;2023-02-28T15:27:20;16.00;;;10.13;;
19161;SDS011;9713;48.140;11.530;2023-02-28T15:31:16;17.37;;;10.40;;
19161;SDS011;9713;48.140;11.530;2023-02-28T15:35:17;21.60;;;11.37;;
19161;SDS011;9713;48.140;11.530;2023-02-28T15:39:02;19.00;;;10.53;;
19161;SDS011;9713;48.140;11.530;2023-02-28T15:43:02;19.63;;;11.03;;
19161;SDS011;9713;48.140;11.530;2023-02-28T15:46:55;16.30;;;10.13;;
19161;SDS011;9713;48.140;11.530;2023-02-28T15:50:40;17.07;;;10.50;;
19161;SDS011;9713;48.140;11.530;2023-02-28T15:54:24;19.97;;;11.10;;
19161;SDS011;9713;48.140;11.530;2023-02-28T15:58:10;17.00;;;11.10;;
19161;SDS011;9713;48.140;11.530;2023-02-28T16:10:24;18.47;;;11.17;;
19161;SDS011;9713;48.140;11.530;2023-02-28T16:14:11;18.80;;;11.43;;
19161;SDS011;9713;48.140;11.530;2023-02-28T16:17:57;18.53;;;11.10;;
19161;SDS011;9713;48.140;11.530;2023-02-28T16:21:40;17.00;;;10.93;;
19161;SDS011;9713;48.140;11.530;2023-02-28T16:25:23;18.97;;;11.57;;
19161;SDS011;9713;48.140;11.530;2023-02-28T16:29:08;18.53;;;10.97;;
19161;SDS011;9713;48.140;11.530;2023-02-28T16:32:54;18.67;;;11.23;;
19161;SDS011;9713;48.140;11.530;2023-02-28T16:36:39;20.47;;;10.77;;
19161;SDS011;9713;48.140;11.530;2023-02-28T16:40:23;18.13;;;10.93;;
19161;SDS011;9713;48.140;11.530;2023-02-28T16:44:11;18.17;;;10.30;;
19161;SDS011;9713;48.140;11.530;2023-02-28T16:47:57;17.47;;;11.07;;
19161;SDS011;9713;48.140;11.530;2023-02-28T16:51:39;18.70;;;10.93;;
19161;SDS011;9713;48.140;11.530;2023-02-28T16:55:22;19.13;;;10.50;;
19161;SDS011;9713;48.140;11.530;2023-02-28T16:59:05;19.33;;;11.13;;
19161;SDS011;9713;48.140;11.530;2023-02-28T17:02:50;21.70;;;11.30;;
19161;SDS011;9713;48.140;11.530;2023-02-28T17:06:35;20.83;;;11.97;;
19161;SDS011;9713;48.140;11.530;2023-02-28T17:10:18;20.50;;;11.37;;
19161;SDS011;9713;48.140;11.530;2023-02-28T17:14:02;24.10;;;12.33;;
19161;SDS011;9713;48.140;11.530;2023-02-28T17:17:45;35.23;;;15.73;;
19161;SDS011;9713;48.140;11.530;2023-02-28T17:21:29;102.10;;;41.20;;
19161;SDS011;9713;48.140;11.530;2023-02-28T17:25:13;27.10;;;14.43;;
19161;SDS011;9713;48.140;11.530;2023-02-28T17:28:56;27.37;;;13.67;;
19161;SDS011;9713;48.140;11.530;2023-02-28T17:32:39;22.93;;;11.93;;
19161;SDS011;9713;48.140;11.530;2023-02-28T17:36:23;25.53;;;12.30;;
19161;SDS011;9713;48.140;11.530;2023-02-28T17:40:11;20.77;;;12.27;;
19161;SDS011;9713;48.140;11.530;2023-02-28T17:43:57;24.73;;;13.87;;
19161;SDS011;9713;48.140;11.530;2023-02-28T17:47:40;25.43;;;13.33;;
19161;SDS011;9713;48.140;11.530;2023-02-28T17:51:24;28.33;;;14.70;;
19161;SDS011;9713;48.140;11.530;2023-02-28T17:55:09;26.27;;;13.53;;
19161;SDS011;9713;48.140;11.530;2023-02-28T17:58:54;25.47;;;14.60;;
19161;SDS011;9713;48.140;11.530;2023-02-28T18:02:37;26.53;;;15.30;;
19161;SDS011;9713;48.140;11.530;2023-02-28T18:06:21;27.07;;;15.47;;
19161;SDS011;9713;48.140;11.530;2023-02-28T18:10:05;29.50;;;16.33;;
19161;SDS011;9713;48.140;11.530;2023-02-28T18:13:49;32.90;;;16.73;;
19161;SDS011;9713;48.140;11.530;2023-02-28T18:17:34;27.27;;;16.67;;
19161;SDS011;9713;48.140;11.530;2023-02-28T18:21:17;29.60;;;16.43;;
19161;SDS011;9713;48.140;11.530;2023-02-28T18:25:00;28.60;;;16.70;;
19161;SDS011;9713;48.140;11.530;2023-02-28T18:28:43;26.67;;;16.20;;
19161;SDS011;9713;48.140;11.530;2023-02-28T18:32:26;28.00;;;17.30;;
19161;SDS011;9713;48.140;11.530;2023-02-28T18:36:10;30.00;;;16.53;;
19161;SDS011;9713;48.140;11.530;2023-02-28T18:39:53;27.77;;;16.57;;
19161;SDS011;9713;48.140;11.530;2023-02-28T18:43:36;29.47;;;17.70;;
19161;SDS011;9713;48.140;11.530;2023-02-28T18:47:19;30.77;;;16.83;;
19161;SDS011;9713;48.140;11.530;2023-02-28T18:51:06;28.87;;;15.90;;
19161;SDS011;9713;48.140;11.530;2023-02-28T18:54:50;29.77;;;16.00;;
19161;SDS011;9713;48.140;11.530;2023-02-28T18:58:33;25.63;;;14.20;;
19161;SDS011;9713;48.140;11.530;2023-02-28T19:02:16;25.90;;;14.57;;
19161;SDS011;9713;48.140;11.530;2023-02-28T19:05:59;30.77;;;14.10;;
19161;SDS011;9713;48.140;11.530;2023-02-28T19:09:42;26.37;;;14.47;;
19161;SDS011;9713;48.140;11.530;2023-02-28T19:13:26;26.60;;;14.60;;
19161;SDS011;9713;48.140;11.530;2023-02-28T19:17:09;22.97;;;13.20;;
19161;SDS011;9713;48.140;11.530;2023-02-28T19:20:51;25.90;;;13.70;;
19161;SDS011;9713;48.140;11.530;2023-02-28T19:24:35;27.10;;;14.87;;
19161;SDS011;9713;48.140;11.530;2023-02-28T19:28:17;25.00;;;13.90;;
19161;SDS011;9713;48.140;11.530;2023-02-28T19:32:01;23.97;;;13.07;;
19161;SDS011;9713;48.140;11.530;2023-02-28T19:35:45;24.93;;;13.53;;
19161;SDS011;9713;48.140;11.530;2023-02-28T19:39:28;26.80;;;14.67;;
19161;SDS011;9713;48.140;11.530;2023-02-28T19:43:21;26.00;;;14.77;;
19161;SDS011;9713;48.140;11.530;2023-02-28T19:47:06;26.10;;;14.73;;
19161;SDS011;9713;48.140;11.530;2023-02-28T19:50:49;26.23;;;14.63;;
19161;SDS011;9713;48.140;11.530;2023-02-28T19:54:31;25.40;;;14.13;;
19161;SDS011;9713;48.140;11.530;2023-02-28T19:58:15;30.67;;;15.80;;
19161;SDS011;9713;48.140;11.530;2023-02-28T20:01:57;27.93;;;15.63;;
19161;SDS011;9713;48.140;11.530;2023-02-28T20:05:41;23.77;;;14.23;;
19161;SDS011;9713;48.140;11.530;2023-02-28T20:09:24;29.57;;;14.13;;
19161;SDS011;9713;48.140;11.530;2023-02-28T20:13:11;24.77;;;14.63;;
19161;SDS011;9713;48.140;11.530;2023-02-28T20:16:54;29.60;;;15.10;;
19161;SDS011;9713;48.140;11.530;2023-02-28T20:24:46;27.10;;;14.57;;
19161;SDS011;9713;48.140;11.530;2023-02-28T20:28:29;27.43;;;15.27;;
19161;SDS011;9713;48.140;11.530;2023-02-28T20:32:12;30.57;;;15.77;;
19161;SDS011;9713;48.140;11.530;2023-02-28T20:35:58;28.00;;;15.70;;
19161;SDS011;9713;48.140;11.530;2023-02-28T20:39:42;28.00;;;15.60;;
19161;SDS011;9713;48.140;11.530;2023-02-28T20:43:25;30.27;;;15.20;;
19161;SDS011;9713;48.140;11.530;2023-02-28T20:47:10;29.40;;;15.13;;
19161;SDS011;9713;48.140;11.530;2023-02-28T20:50:53;27.13;;;15.23;;
19161;SDS011;9713;48.140;11.530;2023-02-28T20:54:37;27.43;;;15.50;;
19161;SDS011;9713;48.140;11.530;2023-02-28T20:58:21;27.57;;;16.07;;
19161;SDS011;9713;48.140;11.530;2023-02-28T21:02:04;27.00;;;14.63;;
19161;SDS011;9713;48.140;11.530;2023-02-28T21:05:47;27.73;;;15.00;;
19161;SDS011;9713;48.140;11.530;2023-02-28T21:09:29;27.13;;;14.93;;
19161;SDS011;9713;48.140;11.530;2023-02-28T21:13:12;27.37;;;15.33;;
19161;SDS011;9713;48.140;11.530;2023-02-28T21:16:57;28.50;;;15.27;;
19161;SDS011;9713;48.140;11.530;2023-02-28T21:20:39;29.33;;;14.90;;
19161;SDS011;9713;48.140;11.530;2023-02-28T21:24:22;27.97;;;15.13;;
19161;SDS011;9713;48.140;11.530;2023-02-28T21:28:05;26.20;;;14.87;;
19161;SDS011;9713;48.140;11.530;2023-02-28T21:31:49;26.73;;;14.77;;
19161;SDS011;9713;48.140;11.530;2023-02-28T21:35:37;28.47;;;15.37;;
19161;SDS011;9713;48.140;11.530;2023-02-28T21:39:20;27.07;;;15.07;;
19161;SDS011;9713;48.140;11.530;2023-02-28T21:43:08;25.57;;;14.60;;
19161;SDS011;9713;48.140;11.530;2023-02-28T21:46:51;36.07;;;17.33;;
19161;SDS011;9713;48.140;11.530;2023-02-28T21:50:38;30.00;;;16.17;;
19161;SDS011;9713;48.140;11.530;2023-02-28T21:54:21;24.50;;;14.30;;
19161;SDS011;9713;48.140;11.530;2023-02-28T21:58:04;29.27;;;15.30;;
19161;SDS011;9713;48.140;11.530;2023-02-28T22:01:47;27.57;;;15.73;;
19161;SDS011;9713;48.140;11.530;2023-02-28T22:05:31;26.77;;;14.77;;
19161;SDS011;9713;48.140;11.530;2023-02-28T22:09:15;24.47;;;14.20;;
19161;SDS011;9713;48.140;11.530;2023-02-28T22:12:59;27.77;;;15.10;;
19161;SDS011;9713;48.140;11.530;2023-02-28T22:16:43;27.90;;;14.63;;
19161;SDS011;9713;48.140;11.530;2023-02-28T22:20:35;25.13;;;14.13;;
19161;SDS011;9713;48.140;11.530;2023-02-28T22:24:19;27.67;;;15.40;;
19161;SDS011;9713;48.140;11.530;2023-02-28T22:28:04;28.47;;;14.97;;
19161;SDS011;9713;48.140;11.530;2023-02-28T22:31:47;27.00;;;14.70;;
19161;SDS011;9713;48.140;11.530;2023-02-28T22:35:30;26.03;;;14.23;;
19161;SDS011;9713;48.140;11.530;2023-02-28T22:39:13;28.90;;;15.13;;
19161;SDS011;9713;48.140;11.530;2023-02-28T22:42:57;30.43;;;16.30;;
19161;SDS011;9713;48.140;11.530;2023-02-28T22:46:39;25.60;;;14.70;;